createdAt,value
2018-08-08T00:01:08.800Z,42.30
2018-08-08T00:03:41.694Z,41.60
2018-08-08T00:06:16.390Z,42.50
2018-08-08T00:08:49.988Z,41.70
2018-08-08T00:11:24.222Z,41.20
2018-08-08T00:13:58.364Z,41.60
2018-08-08T00:16:31.844Z,41.00
2018-08-08T00:19:04.723Z,40.90
2018-08-08T00:21:38.218Z,40.70
2018-08-08T00:24:11.051Z,42.00
2018-08-08T00:26:44.133Z,40.40
2018-08-08T00:29:17.274Z,39.90
2018-08-08T00:31:50.664Z,40.10
2018-08-08T00:34:25.676Z,40.20
2018-08-08T00:37:00.789Z,40.80
2018-08-08T00:39:35.738Z,39.80
2018-08-08T00:42:13.162Z,41.00
2018-08-08T00:44:46.374Z,40.80
2018-08-08T00:47:20.626Z,39.20
2018-08-08T00:49:53.616Z,38.60
2018-08-08T00:52:28.165Z,37.70
2018-08-08T00:55:01.132Z,37.60
2018-08-08T00:57:35.242Z,37.00
2018-08-08T01:00:09.669Z,37.70
2018-08-08T01:02:44.396Z,37.10
2018-08-08T01:05:18.439Z,37.00
2018-08-08T01:07:52.876Z,36.70
2018-08-08T01:10:28.395Z,37.10
2018-08-08T01:13:02.588Z,36.80
2018-08-08T01:15:36.367Z,36.30
2018-08-08T01:18:09.928Z,35.80
2018-08-08T01:20:43.204Z,36.90
2018-08-08T01:23:16.716Z,36.80
2018-08-08T01:25:49.588Z,37.20
2018-08-08T01:28:23.218Z,37.50
2018-08-08T01:30:58.031Z,40.50
2018-08-08T01:33:32.496Z,38.80
2018-08-08T01:36:06.308Z,38.70
2018-08-08T01:38:39.563Z,37.50
2018-08-08T01:41:15.051Z,37.60
2018-08-08T01:43:51.238Z,38.60
2018-08-08T01:46:25.659Z,38.70
2018-08-08T01:48:59.954Z,40.50
2018-08-08T01:51:34.911Z,41.10
2018-08-08T01:54:09.626Z,40.20
2018-08-08T01:56:42.520Z,40.60
2018-08-08T01:59:16.069Z,40.00
2018-08-08T02:01:50.146Z,40.20
2018-08-08T02:04:26.611Z,40.30
2018-08-08T02:07:02.371Z,40.00
2018-08-08T02:09:37.191Z,41.30
2018-08-08T02:12:12.137Z,42.10
2018-08-08T02:14:47.149Z,44.70
2018-08-08T02:17:20.051Z,45.30
2018-08-08T02:19:52.978Z,47.10
2018-08-08T02:26:35.051Z,48.70
2018-08-08T02:29:10.136Z,50.80
2018-08-08T02:31:44.544Z,49.70
2018-08-08T02:34:18.229Z,50.70
2018-08-08T02:36:51.640Z,51.20
2018-08-08T02:39:25.780Z,53.20
2018-08-08T02:41:59.686Z,52.00
2018-08-08T02:44:33.449Z,53.90
2018-08-08T02:47:07.196Z,53.80
2018-08-08T02:49:41.545Z,53.00
2018-08-08T02:52:15.418Z,54.20
2018-08-08T02:54:49.368Z,54.50
2018-08-08T02:57:23.197Z,55.40
2018-08-08T02:59:56.458Z,53.80
2018-08-08T03:02:31.033Z,53.20
2018-08-08T03:05:10.070Z,53.00
2018-08-08T03:07:45.399Z,54.20
2018-08-08T03:10:20.097Z,56.20
2018-08-08T03:12:53.308Z,55.60
2018-08-08T03:15:29.271Z,55.70
2018-08-08T03:18:07.002Z,57.10
2018-08-08T03:20:51.222Z,57.10
2018-08-08T03:23:25.428Z,57.60
2018-08-08T03:25:58.899Z,59.10
2018-08-08T03:28:32.493Z,58.80
2018-08-08T03:31:06.490Z,59.70
2018-08-08T03:33:41.658Z,59.70
2018-08-08T03:36:17.211Z,60.50
2018-08-08T03:38:51.528Z,60.20
2018-08-08T03:41:25.437Z,62.20
2018-08-08T03:44:00.154Z,63.80
2018-08-08T03:46:33.488Z,65.00
2018-08-08T03:49:07.724Z,66.10
2018-08-08T03:51:44.179Z,66.90
2018-08-08T03:54:18.216Z,71.10
2018-08-08T03:56:59.113Z,70.10
2018-08-08T03:59:34.760Z,71.50
2018-08-08T04:02:16.384Z,73.50
2018-08-08T04:04:50.421Z,73.40
2018-08-08T04:07:24.354Z,77.70
2018-08-08T04:09:57.844Z,76.40
2018-08-08T04:12:32.458Z,77.50
2018-08-08T04:15:05.591Z,77.90
2018-08-08T04:17:39.854Z,78.30
2018-08-08T04:20:14.589Z,80.40
2018-08-08T04:22:48.923Z,81.80
2018-08-08T04:25:22.170Z,83.20
2018-08-08T04:27:55.352Z,83.80
2018-08-08T04:30:29.069Z,84.30
2018-08-08T04:33:03.755Z,86.30
2018-08-08T04:35:43.187Z,86.80
2018-08-08T04:38:18.116Z,87.40
2018-08-08T04:40:53.836Z,89.70
2018-08-08T04:43:29.006Z,90.10
2018-08-08T04:46:04.453Z,90.30
2018-08-08T04:48:40.244Z,90.30
2018-08-08T04:51:13.967Z,90.50
2018-08-08T04:53:50.217Z,91.90
2018-08-08T04:56:23.675Z,91.10
2018-08-08T04:58:58.441Z,91.00
2018-08-08T05:01:32.402Z,91.50
2018-08-08T05:04:08.114Z,91.60
2018-08-08T05:06:46.590Z,92.10
2018-08-08T05:09:27.846Z,92.00
2018-08-08T05:12:12.076Z,92.30
2018-08-08T05:14:58.832Z,92.10
2018-08-08T05:17:38.298Z,92.00
2018-08-08T05:20:12.933Z,92.50
2018-08-08T05:22:53.797Z,92.50
2018-08-08T05:25:30.891Z,92.70
2018-08-08T05:28:08.500Z,92.80
2018-08-08T05:30:42.733Z,92.80
2018-08-08T05:33:20.667Z,93.40
2018-08-08T05:35:55.735Z,93.20
2018-08-08T05:41:11.834Z,93.40
2018-08-08T05:43:45.322Z,93.40
2018-08-08T05:49:04.991Z,94.50
2018-08-08T05:51:41.742Z,94.20
2018-08-08T05:59:51.920Z,94.10
2018-08-08T06:02:27.313Z,93.80
2018-08-08T06:05:00.569Z,93.70
2018-08-08T06:07:33.918Z,93.50
2018-08-08T06:10:07.767Z,93.50
2018-08-08T06:12:42.142Z,93.30
2018-08-08T06:15:17.019Z,92.90
2018-08-08T06:17:51.760Z,92.90
2018-08-08T06:20:26.887Z,92.70
2018-08-08T06:23:00.738Z,92.70
2018-08-08T06:25:34.441Z,92.80
2018-08-08T06:28:08.141Z,93.00
2018-08-08T06:30:41.754Z,92.80
2018-08-08T06:33:16.013Z,93.00
2018-08-08T06:35:50.497Z,92.90
2018-08-08T06:38:27.530Z,92.90
2018-08-08T06:41:01.715Z,93.20
2018-08-08T06:43:35.250Z,92.90
2018-08-08T06:46:09.080Z,92.80
2018-08-08T06:48:49.003Z,93.00
2018-08-08T06:51:25.853Z,92.80
2018-08-08T06:54:00.793Z,92.90
2018-08-08T06:56:40.125Z,93.30
2018-08-08T06:59:16.832Z,93.40
2018-08-08T07:01:50.170Z,93.80
2018-08-08T07:04:25.195Z,94.00
2018-08-08T07:07:04.814Z,94.50
2018-08-08T07:09:40.912Z,94.70
2018-08-08T07:12:37.554Z,94.90
2018-08-08T07:15:16.666Z,94.80
2018-08-08T07:17:50.783Z,95.10
2018-08-08T07:20:29.284Z,95.40
2018-08-08T14:36:05.620Z,99.90
2018-08-08T14:38:40.416Z,99.90
2018-08-08T14:41:32.326Z,99.90
2018-08-08T14:50:44.891Z,99.90
2018-08-08T14:53:18.294Z,99.90
2018-08-08T14:55:52.581Z,99.90
2018-08-08T14:58:27.657Z,99.90
2018-08-08T15:01:03.753Z,99.90
2018-08-08T15:03:42.030Z,99.90
2018-08-08T15:08:58.414Z,99.90
2018-08-08T15:11:34.380Z,99.90
2018-08-08T15:14:08.327Z,99.90
2018-08-08T15:16:42.417Z,99.90
2018-08-08T15:19:17.464Z,99.90
2018-08-08T15:21:52.283Z,99.90
2018-08-08T15:24:28.105Z,99.90
2018-08-08T15:27:03.027Z,99.90
2018-08-08T15:29:36.728Z,99.90
2018-08-08T15:32:10.250Z,99.90
2018-08-08T15:34:47.466Z,99.90
2018-08-08T15:37:24.343Z,99.90
2018-08-08T15:39:58.667Z,99.90
2018-08-08T15:42:32.131Z,99.90
2018-08-08T15:45:07.137Z,99.90
2018-08-08T15:47:41.190Z,99.90
2018-08-08T15:50:15.980Z,99.90
2018-08-08T15:52:49.819Z,99.90
2018-08-08T15:55:23.972Z,99.70
2018-08-08T15:57:57.634Z,99.90
2018-08-08T16:00:30.999Z,99.90
2018-08-08T16:03:05.107Z,99.70
2018-08-08T16:05:38.833Z,99.90
2018-08-08T16:08:14.950Z,99.90
2018-08-08T16:10:53.853Z,99.90
2018-08-08T16:13:28.204Z,99.90
2018-08-08T16:16:06.961Z,99.90
2018-08-08T16:18:41.900Z,99.90
2018-08-08T16:21:16.478Z,99.60
2018-08-08T16:23:52.851Z,99.10
2018-08-08T16:26:26.451Z,98.30
2018-08-08T16:29:01.287Z,98.80
2018-08-08T16:31:34.924Z,98.50
2018-08-08T16:34:08.498Z,98.30
2018-08-08T16:36:42.874Z,98.00
2018-08-08T16:39:16.872Z,98.60
2018-08-08T16:41:53.613Z,98.90
2018-08-08T16:44:27.041Z,97.10
2018-08-08T16:47:02.166Z,97.20
2018-08-08T16:49:36.416Z,97.30
2018-08-08T16:52:09.470Z,97.10
2018-08-08T16:54:43.564Z,97.70
2018-08-08T16:57:17.519Z,97.50
2018-08-08T16:59:53.955Z,97.10
2018-08-08T17:02:29.339Z,96.90
2018-08-08T17:05:04.869Z,96.40
2018-08-08T17:07:39.963Z,97.00
2018-08-08T17:10:14.543Z,96.40
2018-08-08T17:12:47.662Z,96.40
2018-08-08T17:15:22.988Z,96.10
2018-08-08T17:17:59.186Z,96.20
2018-08-08T17:20:36.512Z,95.90
2018-08-08T17:23:17.044Z,96.00
2018-08-08T17:25:52.271Z,95.30
2018-08-08T17:28:25.744Z,95.20
2018-08-08T17:31:00.283Z,95.90
2018-08-08T17:33:36.427Z,95.90
2018-08-08T17:36:13.521Z,95.60
2018-08-08T17:38:47.834Z,95.10
2018-08-08T17:41:23.919Z,94.30
2018-08-08T17:44:00.701Z,95.00
2018-08-08T17:46:44.073Z,94.70
2018-08-08T17:49:21.943Z,95.20
2018-08-08T17:51:57.895Z,94.60
2018-08-08T17:54:33.986Z,94.20
2018-08-08T18:01:39.973Z,94.30
2018-08-08T18:06:58.371Z,93.00
2018-08-08T18:09:35.227Z,94.00
2018-08-08T18:12:09.578Z,93.80
2018-08-08T18:14:43.172Z,93.30
2018-08-08T18:17:17.865Z,93.30
2018-08-08T18:19:54.881Z,92.90
2018-08-08T18:22:29.605Z,92.40
2018-08-08T18:25:02.881Z,92.40
2018-08-08T18:27:36.477Z,93.20
2018-08-08T18:30:12.497Z,93.20
2018-08-08T18:32:49.543Z,93.40
2018-08-08T18:35:26.538Z,92.70
2018-08-08T18:38:03.658Z,92.70
2018-08-08T18:40:37.994Z,92.20
2018-08-08T18:43:13.603Z,92.30
2018-08-08T18:45:48.081Z,93.10
2018-08-08T18:48:24.088Z,92.60
2018-08-08T18:50:59.558Z,93.30
2018-08-08T18:53:36.263Z,92.20
2018-08-08T18:56:10.201Z,91.90
